sensor_id;sensor_type;location;lat;lon;timestamp;temperature;humidity
32809;DHT22;19159;48.178;16.386;2023-09-19T00:00:34;23.90;91.70
32809;DHT22;19159;48.178;16.386;2023-09-19T00:03:01;23.80;91.80
32809;DHT22;19159;48.178;16.386;2023-09-19T00:05:28;23.80;92.00
32809;DHT22;19159;48.178;16.386;2023-09-19T00:07:55;23.90;92.40
32809;DHT22;19159;48.178;16.386;2023-09-19T00:10:24;23.80;92.30
32809;DHT22;19159;48.178;16.386;2023-09-19T00:12:51;23.80;92.50
32809;DHT22;19159;48.178;16.386;2023-09-19T00:15:18;23.70;93.00
32809;DHT22;19159;48.178;16.386;2023-09-19T00:17:44;23.70;92.90
32809;DHT22;19159;48.178;16.386;2023-09-19T00:20:11;23.70;93.30
32809;DHT22;19159;48.178;16.386;2023-09-19T00:22:41;23.50;93.50
32809;DHT22;19159;48.178;16.386;2023-09-19T00:25:11;23.40;93.90
32809;DHT22;19159;48.178;16.386;2023-09-19T00:27:38;23.30;94.30
32809;DHT22;19159;48.178;16.386;2023-09-19T00:30:08;23.10;94.70
32809;DHT22;19159;48.178;16.386;2023-09-19T00:32:38;23.10;95.00
32809;DHT22;19159;48.178;16.386;2023-09-19T00:35:04;23.10;95.30
32809;DHT22;19159;48.178;16.386;2023-09-19T00:37:30;23.00;95.40
32809;DHT22;19159;48.178;16.386;2023-09-19T00:39:56;22.90;95.60
32809;DHT22;19159;48.178;16.386;2023-09-19T00:42:21;22.90;95.80
32809;DHT22;19159;48.178;16.386;2023-09-19T00:44:47;22.90;96.00
32809;DHT22;19159;48.178;16.386;2023-09-19T00:47:17;22.80;96.20
32809;DHT22;19159;48.178;16.386;2023-09-19T00:49:44;22.70;96.80
32809;DHT22;19159;48.178;16.386;2023-09-19T00:52:15;22.60;96.70
32809;DHT22;19159;48.178;16.386;2023-09-19T00:54:41;22.50;96.90
32809;DHT22;19159;48.178;16.386;2023-09-19T00:57:07;22.50;97.10
32809;DHT22;19159;48.178;16.386;2023-09-19T00:59:34;22.40;97.20
32809;DHT22;19159;48.178;16.386;2023-09-19T01:02:02;22.40;97.60
32809;DHT22;19159;48.178;16.386;2023-09-19T01:04:28;22.30;97.30
32809;DHT22;19159;48.178;16.386;2023-09-19T01:06:54;22.30;97.40
32809;DHT22;19159;48.178;16.386;2023-09-19T01:09:20;22.30;97.70
32809;DHT22;19159;48.178;16.386;2023-09-19T01:11:48;22.10;97.40
32809;DHT22;19159;48.178;16.386;2023-09-19T01:14:38;22.10;97.50
32809;DHT22;19159;48.178;16.386;2023-09-19T01:20:19;22.00;97.50
32809;DHT22;19159;48.178;16.386;2023-09-19T01:28:54;21.90;97.50
32809;DHT22;19159;48.178;16.386;2023-09-19T01:31:24;22.00;97.50
32809;DHT22;19159;48.178;16.386;2023-09-19T01:33:57;22.00;97.50
32809;DHT22;19159;48.178;16.386;2023-09-19T01:36:28;22.00;97.60
32809;DHT22;19159;48.178;16.386;2023-09-19T01:38:55;22.00;97.70
32809;DHT22;19159;48.178;16.386;2023-09-19T01:44:06;22.20;97.80
32809;DHT22;19159;48.178;16.386;2023-09-19T01:46:36;22.20;97.90
32809;DHT22;19159;48.178;16.386;2023-09-19T01:49:15;22.10;97.70
32809;DHT22;19159;48.178;16.386;2023-09-19T01:51:59;22.10;97.80
32809;DHT22;19159;48.178;16.386;2023-09-19T01:54:40;22.00;98.30
32809;DHT22;19159;48.178;16.386;2023-09-19T01:57:14;21.90;98.20
32809;DHT22;19159;48.178;16.386;2023-09-19T01:59:49;21.90;98.30
32809;DHT22;19159;48.178;16.386;2023-09-19T02:02:17;21.90;98.40
32809;DHT22;19159;48.178;16.386;2023-09-19T02:04:43;21.80;98.60
32809;DHT22;19159;48.178;16.386;2023-09-19T02:07:09;21.70;98.70
32809;DHT22;19159;48.178;16.386;2023-09-19T02:09:34;21.70;98.90
32809;DHT22;19159;48.178;16.386;2023-09-19T02:12:01;21.60;98.90
32809;DHT22;19159;48.178;16.386;2023-09-19T02:14:29;21.70;99.00
32809;DHT22;19159;48.178;16.386;2023-09-19T02:16:55;21.70;99.10
32809;DHT22;19159;48.178;16.386;2023-09-19T02:19:21;21.70;98.90
32809;DHT22;19159;48.178;16.386;2023-09-19T02:21:47;21.80;98.80
32809;DHT22;19159;48.178;16.386;2023-09-19T02:24:14;21.80;98.80
32809;DHT22;19159;48.178;16.386;2023-09-19T02:26:41;21.70;98.90
32809;DHT22;19159;48.178;16.386;2023-09-19T02:29:06;21.80;99.30
32809;DHT22;19159;48.178;16.386;2023-09-19T02:31:32;21.80;98.90
32809;DHT22;19159;48.178;16.386;2023-09-19T02:33:57;21.90;98.90
32809;DHT22;19159;48.178;16.386;2023-09-19T02:36:23;21.90;98.90
32809;DHT22;19159;48.178;16.386;2023-09-19T02:38:49;21.90;99.00
32809;DHT22;19159;48.178;16.386;2023-09-19T02:41:15;21.90;99.00
32809;DHT22;19159;48.178;16.386;2023-09-19T02:43:40;21.90;99.10
32809;DHT22;19159;48.178;16.386;2023-09-19T02:46:08;21.80;99.20
32809;DHT22;19159;48.178;16.386;2023-09-19T02:48:34;21.80;99.40
32809;DHT22;19159;48.178;16.386;2023-09-19T02:51:01;21.80;99.50
32809;DHT22;19159;48.178;16.386;2023-09-19T02:53:28;21.70;99.60
32809;DHT22;19159;48.178;16.386;2023-09-19T02:55:56;21.70;99.60
32809;DHT22;19159;48.178;16.386;2023-09-19T02:58:22;21.70;99.70
32809;DHT22;19159;48.178;16.386;2023-09-19T03:00:49;21.60;99.80
32809;DHT22;19159;48.178;16.386;2023-09-19T03:03:17;21.60;99.90
32809;DHT22;19159;48.178;16.386;2023-09-19T03:05:43;21.60;99.90
32809;DHT22;19159;48.178;16.386;2023-09-19T03:08:13;21.50;99.90
32809;DHT22;19159;48.178;16.386;2023-09-19T03:10:40;21.60;99.90
32809;DHT22;19159;48.178;16.386;2023-09-19T03:13:06;21.60;99.90
32809;DHT22;19159;48.178;16.386;2023-09-19T03:15:35;21.60;99.90
32809;DHT22;19159;48.178;16.386;2023-09-19T03:18:04;21.70;99.90
32809;DHT22;19159;48.178;16.386;2023-09-19T03:20:30;21.70;99.90
32809;DHT22;19159;48.178;16.386;2023-09-19T03:22:55;21.70;99.90
32809;DHT22;19159;48.178;16.386;2023-09-19T03:25:22;21.70;99.90
32809;DHT22;19159;48.178;16.386;2023-09-19T03:27:48;21.70;99.90
32809;DHT22;19159;48.178;16.386;2023-09-19T03:30:13;21.80;99.90
32809;DHT22;19159;48.178;16.386;2023-09-19T03:32:46;21.80;99.90
32809;DHT22;19159;48.178;16.386;2023-09-19T03:35:13;21.80;99.90
32809;DHT22;19159;48.178;16.386;2023-09-19T03:37:42;21.80;99.90
32809;DHT22;19159;48.178;16.386;2023-09-19T03:40:11;21.90;99.90
32809;DHT22;19159;48.178;16.386;2023-09-19T03:42:38;22.00;99.90
32809;DHT22;19159;48.178;16.386;2023-09-19T03:45:05;22.10;99.80
32809;DHT22;19159;48.178;16.386;2023-09-19T03:47:31;22.10;99.70
32809;DHT22;19159;48.178;16.386;2023-09-19T03:49:57;22.10;99.60
32809;DHT22;19159;48.178;16.386;2023-09-19T03:52:22;22.10;99.60
32809;DHT22;19159;48.178;16.386;2023-09-19T03:54:48;22.10;99.50
32809;DHT22;19159;48.178;16.386;2023-09-19T03:57:14;22.10;99.60
32809;DHT22;19159;48.178;16.386;2023-09-19T03:59:42;22.10;99.70
32809;DHT22;19159;48.178;16.386;2023-09-19T04:02:11;22.10;99.70
32809;DHT22;19159;48.178;16.386;2023-09-19T04:04:48;22.10;99.70
32809;DHT22;19159;48.178;16.386;2023-09-19T04:07:13;22.20;99.70
32809;DHT22;19159;48.178;16.386;2023-09-19T04:09:39;22.10;99.60
32809;DHT22;19159;48.178;16.386;2023-09-19T04:12:05;22.10;99.70
32809;DHT22;19159;48.178;16.386;2023-09-19T04:14:30;22.20;99.70
32809;DHT22;19159;48.178;16.386;2023-09-19T04:16:56;22.20;99.90
32809;DHT22;19159;48.178;16.386;2023-09-19T04:19:22;22.30;99.70
32809;DHT22;19159;48.178;16.386;2023-09-19T04:21:47;22.30;99.60
32809;DHT22;19159;48.178;16.386;2023-09-19T04:24:13;22.30;99.90
32809;DHT22;19159;48.178;16.386;2023-09-19T04:26:39;22.40;99.60
32809;DHT22;19159;48.178;16.386;2023-09-19T04:29:04;22.40;99.50
32809;DHT22;19159;48.178;16.386;2023-09-19T04:31:31;22.40;99.40
32809;DHT22;19159;48.178;16.386;2023-09-19T04:33:57;22.40;99.60
32809;DHT22;19159;48.178;16.386;2023-09-19T04:36:24;22.40;99.20
32809;DHT22;19159;48.178;16.386;2023-09-19T04:38:50;22.40;99.30
32809;DHT22;19159;48.178;16.386;2023-09-19T04:41:15;22.30;99.40
32809;DHT22;19159;48.178;16.386;2023-09-19T04:43:41;22.30;99.40
32809;DHT22;19159;48.178;16.386;2023-09-19T04:46:07;22.30;99.50
32809;DHT22;19159;48.178;16.386;2023-09-19T04:48:33;22.20;99.30
32809;DHT22;19159;48.178;16.386;2023-09-19T04:51:00;22.10;99.40
32809;DHT22;19159;48.178;16.386;2023-09-19T04:53:25;22.10;99.40
32809;DHT22;19159;48.178;16.386;2023-09-19T04:55:53;22.00;99.40
32809;DHT22;19159;48.178;16.386;2023-09-19T04:58:21;21.90;99.40
32809;DHT22;19159;48.178;16.386;2023-09-19T05:00:46;21.90;99.50
32809;DHT22;19159;48.178;16.386;2023-09-19T05:03:12;21.90;99.50
32809;DHT22;19159;48.178;16.386;2023-09-19T05:05:38;21.90;99.50
32809;DHT22;19159;48.178;16.386;2023-09-19T05:08:04;21.90;99.30
32809;DHT22;19159;48.178;16.386;2023-09-19T05:10:32;21.80;99.30
32809;DHT22;19159;48.178;16.386;2023-09-19T05:12:57;21.80;99.40
32809;DHT22;19159;48.178;16.386;2023-09-19T05:15:23;21.60;99.60
32809;DHT22;19159;48.178;16.386;2023-09-19T05:17:50;21.60;99.80
32809;DHT22;19159;48.178;16.386;2023-09-19T05:20:16;21.70;99.90
32809;DHT22;19159;48.178;16.386;2023-09-19T05:22:43;21.70;99.90
32809;DHT22;19159;48.178;16.386;2023-09-19T05:25:11;21.70;99.90
32809;DHT22;19159;48.178;16.386;2023-09-19T05:27:42;21.80;99.90
32809;DHT22;19159;48.178;16.386;2023-09-19T05:30:08;21.90;99.90
32809;DHT22;19159;48.178;16.386;2023-09-19T05:32:34;22.00;99.90
32809;DHT22;19159;48.178;16.386;2023-09-19T05:34:59;21.90;99.90
32809;DHT22;19159;48.178;16.386;2023-09-19T05:37:25;22.00;99.90
32809;DHT22;19159;48.178;16.386;2023-09-19T05:39:51;22.00;99.90
32809;DHT22;19159;48.178;16.386;2023-09-19T05:42:18;22.00;99.90
32809;DHT22;19159;48.178;16.386;2023-09-19T05:44:44;22.00;99.90
32809;DHT22;19159;48.178;16.386;2023-09-19T05:47:09;22.00;99.90
32809;DHT22;19159;48.178;16.386;2023-09-19T05:49:35;22.10;99.90
32809;DHT22;19159;48.178;16.386;2023-09-19T05:52:07;22.10;99.90
32809;DHT22;19159;48.178;16.386;2023-09-19T05:54:33;22.00;99.90
32809;DHT22;19159;48.178;16.386;2023-09-19T05:57:00;22.10;99.90
32809;DHT22;19159;48.178;16.386;2023-09-19T05:59:26;22.10;99.90
32809;DHT22;19159;48.178;16.386;2023-09-19T06:01:51;22.20;99.90
32809;DHT22;19159;48.178;16.386;2023-09-19T06:04:17;22.40;99.90
32809;DHT22;19159;48.178;16.386;2023-09-19T06:06:45;22.40;99.90
32809;DHT22;19159;48.178;16.386;2023-09-19T06:09:10;22.60;99.90
32809;DHT22;19159;48.178;16.386;2023-09-19T06:11:36;22.60;99.90
32809;DHT22;19159;48.178;16.386;2023-09-19T06:14:03;22.70;99.60
32809;DHT22;19159;48.178;16.386;2023-09-19T06:16:29;22.70;99.40
32809;DHT22;19159;48.178;16.386;2023-09-19T06:18:55;22.60;99.20
32809;DHT22;19159;48.178;16.386;2023-09-19T06:21:24;22.60;99.10
32809;DHT22;19159;48.178;16.386;2023-09-19T06:23:50;22.60;99.00
32809;DHT22;19159;48.178;16.386;2023-09-19T06:26:15;22.60;99.20
32809;DHT22;19159;48.178;16.386;2023-09-19T06:28:41;22.70;99.30
32809;DHT22;19159;48.178;16.386;2023-09-19T06:31:08;22.70;99.20
32809;DHT22;19159;48.178;16.386;2023-09-19T06:33:36;22.80;99.20
32809;DHT22;19159;48.178;16.386;2023-09-19T06:36:07;22.90;99.20
32809;DHT22;19159;48.178;16.386;2023-09-19T06:38:33;23.00;99.00
32809;DHT22;19159;48.178;16.386;2023-09-19T06:41:02;23.10;98.80
32809;DHT22;19159;48.178;16.386;2023-09-19T06:43:33;23.10;98.50
32809;DHT22;19159;48.178;16.386;2023-09-19T06:46:00;23.00;98.20
32809;DHT22;19159;48.178;16.386;2023-09-19T06:48:26;22.90;98.20
32809;DHT22;19159;48.178;16.386;2023-09-19T06:50:55;23.00;98.30
32809;DHT22;19159;48.178;16.386;2023-09-19T06:53:21;23.00;98.20
32809;DHT22;19159;48.178;16.386;2023-09-19T06:55:50;23.00;98.10
32809;DHT22;19159;48.178;16.386;2023-09-19T06:58:15;22.90;98.10
32809;DHT22;19159;48.178;16.386;2023-09-19T07:00:42;22.90;98.10
32809;DHT22;19159;48.178;16.386;2023-09-19T07:03:09;22.90;98.10
32809;DHT22;19159;48.178;16.386;2023-09-19T07:05:38;22.90;98.20
32809;DHT22;19159;48.178;16.386;2023-09-19T07:08:06;22.90;98.10
32809;DHT22;19159;48.178;16.386;2023-09-19T07:10:32;22.90;98.20
32809;DHT22;19159;48.178;16.386;2023-09-19T07:12:59;22.90;98.10
32809;DHT22;19159;48.178;16.386;2023-09-19T07:15:26;22.90;98.00
32809;DHT22;19159;48.178;16.386;2023-09-19T07:17:55;22.90;98.00
32809;DHT22;19159;48.178;16.386;2023-09-19T07:20:23;22.90;97.90
32809;DHT22;19159;48.178;16.386;2023-09-19T07:22:51;22.90;97.90
32809;DHT22;19159;48.178;16.386;2023-09-19T07:25:17;22.70;98.00
32809;DHT22;19159;48.178;16.386;2023-09-19T07:27:43;22.60;97.80
32809;DHT22;19159;48.178;16.386;2023-09-19T07:30:09;22.60;97.90
32809;DHT22;19159;48.178;16.386;2023-09-19T07:32:35;22.60;98.00
32809;DHT22;19159;48.178;16.386;2023-09-19T07:35:06;22.50;98.00
32809;DHT22;19159;48.178;16.386;2023-09-19T07:37:32;22.50;98.00
32809;DHT22;19159;48.178;16.386;2023-09-19T07:40:07;22.40;98.20
32809;DHT22;19159;48.178;16.386;2023-09-19T07:42:37;22.50;98.10
32809;DHT22;19159;48.178;16.386;2023-09-19T07:45:06;22.50;98.10
32809;DHT22;19159;48.178;16.386;2023-09-19T07:47:33;22.50;98.00
32809;DHT22;19159;48.178;16.386;2023-09-19T07:49:59;22.50;98.00
32809;DHT22;19159;48.178;16.386;2023-09-19T07:52:27;22.50;97.90
32809;DHT22;19159;48.178;16.386;2023-09-19T07:54:53;22.50;97.80
32809;DHT22;19159;48.178;16.386;2023-09-19T07:57:19;22.50;97.90
32809;DHT22;19159;48.178;16.386;2023-09-19T07:59:45;22.50;97.80
32809;DHT22;19159;48.178;16.386;2023-09-19T08:02:11;22.60;97.80
32809;DHT22;19159;48.178;16.386;2023-09-19T08:04:45;22.50;97.90
32809;DHT22;19159;48.178;16.386;2023-09-19T08:07:14;22.50;97.90
32809;DHT22;19159;48.178;16.386;2023-09-19T08:09:40;22.60;97.90
32809;DHT22;19159;48.178;16.386;2023-09-19T08:12:07;22.50;97.90
32809;DHT22;19159;48.178;16.386;2023-09-19T08:14:36;22.60;97.90
32809;DHT22;19159;48.178;16.386;2023-09-19T08:17:02;22.70;98.40
32809;DHT22;19159;48.178;16.386;2023-09-19T08:19:28;22.80;97.90
32809;DHT22;19159;48.178;16.386;2023-09-19T08:21:57;22.90;97.60
32809;DHT22;19159;48.178;16.386;2023-09-19T08:24:30;23.00;97.50
32809;DHT22;19159;48.178;16.386;2023-09-19T08:26:56;23.00;97.30
32809;DHT22;19159;48.178;16.386;2023-09-19T08:29:23;23.10;97.00
32809;DHT22;19159;48.178;16.386;2023-09-19T08:31:57;23.10;97.00
32809;DHT22;19159;48.178;16.386;2023-09-19T08:34:26;23.10;96.80
32809;DHT22;19159;48.178;16.386;2023-09-19T08:36:52;23.00;96.70
32809;DHT22;19159;48.178;16.386;2023-09-19T08:39:24;23.10;96.70
32809;DHT22;19159;48.178;16.386;2023-09-19T08:42:01;23.20;96.40
32809;DHT22;19159;48.178;16.386;2023-09-19T08:44:28;23.20;96.30
32809;DHT22;19159;48.178;16.386;2023-09-19T08:47:06;23.30;96.30
32809;DHT22;19159;48.178;16.386;2023-09-19T08:49:41;23.40;96.10
32809;DHT22;19159;48.178;16.386;2023-09-19T08:52:20;23.30;95.90
32809;DHT22;19159;48.178;16.386;2023-09-19T08:54:49;23.30;95.90
32809;DHT22;19159;48.178;16.386;2023-09-19T08:57:17;23.20;96.00
32809;DHT22;19159;48.178;16.386;2023-09-19T08:59:48;23.30;96.50
32809;DHT22;19159;48.178;16.386;2023-09-19T09:02:16;23.30;96.20
32809;DHT22;19159;48.178;16.386;2023-09-19T09:04:45;23.30;95.80
32809;DHT22;19159;48.178;16.386;2023-09-19T09:07:13;23.30;95.80
32809;DHT22;19159;48.178;16.386;2023-09-19T09:09:40;23.30;95.90
32809;DHT22;19159;48.178;16.386;2023-09-19T09:12:13;23.20;96.20
32809;DHT22;19159;48.178;16.386;2023-09-19T09:14:48;23.30;96.30
32809;DHT22;19159;48.178;16.386;2023-09-19T09:17:15;23.30;95.90
32809;DHT22;19159;48.178;16.386;2023-09-19T09:19:43;23.30;95.90
32809;DHT22;19159;48.178;16.386;2023-09-19T09:22:09;23.40;95.90
32809;DHT22;19159;48.178;16.386;2023-09-19T09:24:36;23.40;95.70
32809;DHT22;19159;48.178;16.386;2023-09-19T09:27:06;23.20;95.60
32809;DHT22;19159;48.178;16.386;2023-09-19T09:29:41;23.20;95.70
32809;DHT22;19159;48.178;16.386;2023-09-19T09:32:25;23.10;95.70
32809;DHT22;19159;48.178;16.386;2023-09-19T09:34:53;23.10;95.70
32809;DHT22;19159;48.178;16.386;2023-09-19T09:37:20;23.10;95.80
32809;DHT22;19159;48.178;16.386;2023-09-19T09:39:59;23.20;95.90
32809;DHT22;19159;48.178;16.386;2023-09-19T09:42:44;23.30;96.00
32809;DHT22;19159;48.178;16.386;2023-09-19T09:45:22;23.40;96.00
32809;DHT22;19159;48.178;16.386;2023-09-19T09:48:01;23.50;95.90
32809;DHT22;19159;48.178;16.386;2023-09-19T09:50:34;23.70;95.80
32809;DHT22;19159;48.178;16.386;2023-09-19T09:56:04;24.00;95.30
32809;DHT22;19159;48.178;16.386;2023-09-19T09:58:36;24.10;94.90
32809;DHT22;19159;48.178;16.386;2023-09-19T10:01:04;24.30;94.80
32809;DHT22;19159;48.178;16.386;2023-09-19T10:03:40;24.70;94.40
32809;DHT22;19159;48.178;16.386;2023-09-19T10:06:14;24.90;93.90
32809;DHT22;19159;48.178;16.386;2023-09-19T10:09:10;25.10;93.80
32809;DHT22;19159;48.178;16.386;2023-09-19T10:11:45;25.40;93.50
32809;DHT22;19159;48.178;16.386;2023-09-19T10:14:14;25.60;93.40
32809;DHT22;19159;48.178;16.386;2023-09-19T10:16:47;25.80;92.60
32809;DHT22;19159;48.178;16.386;2023-09-19T10:19:23;25.90;92.10
32809;DHT22;19159;48.178;16.386;2023-09-19T10:21:54;25.90;91.80
32809;DHT22;19159;48.178;16.386;2023-09-19T10:24:22;26.00;91.50
32809;DHT22;19159;48.178;16.386;2023-09-19T10:26:49;26.00;91.70
32809;DHT22;19159;48.178;16.386;2023-09-19T10:29:17;26.10;91.30
32809;DHT22;19159;48.178;16.386;2023-09-19T10:31:47;26.10;91.40
32809;DHT22;19159;48.178;16.386;2023-09-19T10:34:17;26.20;91.20
32809;DHT22;19159;48.178;16.386;2023-09-19T10:36:46;26.40;91.50
32809;DHT22;19159;48.178;16.386;2023-09-19T10:39:16;26.50;91.30
32809;DHT22;19159;48.178;16.386;2023-09-19T10:41:51;26.50;91.00
32809;DHT22;19159;48.178;16.386;2023-09-19T10:44:26;26.60;90.70
32809;DHT22;19159;48.178;16.386;2023-09-19T10:46:52;26.60;90.40
32809;DHT22;19159;48.178;16.386;2023-09-19T10:49:20;26.70;90.70
32809;DHT22;19159;48.178;16.386;2023-09-19T10:51:49;26.90;91.00
32809;DHT22;19159;48.178;16.386;2023-09-19T10:54:18;27.10;90.30
32809;DHT22;19159;48.178;16.386;2023-09-19T10:56:49;27.10;89.70
32809;DHT22;19159;48.178;16.386;2023-09-19T10:59:18;27.10;90.00
32809;DHT22;19159;48.178;16.386;2023-09-19T11:01:51;27.20;90.20
32809;DHT22;19159;48.178;16.386;2023-09-19T11:04:33;27.50;90.00
32809;DHT22;19159;48.178;16.386;2023-09-19T11:07:05;27.70;89.30
32809;DHT22;19159;48.178;16.386;2023-09-19T11:15:01;27.80;87.30
32809;DHT22;19159;48.178;16.386;2023-09-19T11:17:40;27.90;87.60
32809;DHT22;19159;48.178;16.386;2023-09-19T11:30:41;27.80;86.30
32809;DHT22;19159;48.178;16.386;2023-09-19T11:33:29;27.80;85.60
32809;DHT22;19159;48.178;16.386;2023-09-19T11:36:10;27.70;85.00
32809;DHT22;19159;48.178;16.386;2023-09-19T11:46:27;28.30;83.60
32809;DHT22;19159;48.178;16.386;2023-09-19T11:48:53;28.40;83.30
32809;DHT22;19159;48.178;16.386;2023-09-19T11:53:53;29.20;81.80
32809;DHT22;19159;48.178;16.386;2023-09-19T11:56:21;30.00;79.10
32809;DHT22;19159;48.178;16.386;2023-09-19T11:58:51;30.50;78.70
32809;DHT22;19159;48.178;16.386;2023-09-19T12:01:24;30.00;77.00
32809;DHT22;19159;48.178;16.386;2023-09-19T12:03:53;29.30;77.70
32809;DHT22;19159;48.178;16.386;2023-09-19T12:06:20;28.80;78.50
32809;DHT22;19159;48.178;16.386;2023-09-19T12:08:47;28.60;80.40
32809;DHT22;19159;48.178;16.386;2023-09-19T12:11:15;28.70;80.70
32809;DHT22;19159;48.178;16.386;2023-09-19T12:13:45;28.60;80.20
32809;DHT22;19159;48.178;16.386;2023-09-19T12:16:16;28.40;80.00
32809;DHT22;19159;48.178;16.386;2023-09-19T12:18:45;28.20;80.30
32809;DHT22;19159;48.178;16.386;2023-09-19T12:21:31;28.00;80.20
32809;DHT22;19159;48.178;16.386;2023-09-19T12:26:42;27.90;82.20
32809;DHT22;19159;48.178;16.386;2023-09-19T12:29:13;28.00;82.50
32809;DHT22;19159;48.178;16.386;2023-09-19T12:31:55;27.90;81.70
32809;DHT22;19159;48.178;16.386;2023-09-19T12:34:32;27.90;81.70
32809;DHT22;19159;48.178;16.386;2023-09-19T12:37:11;27.80;81.00
32809;DHT22;19159;48.178;16.386;2023-09-19T12:39:43;27.80;81.50
32809;DHT22;19159;48.178;16.386;2023-09-19T12:42:15;27.90;81.80
32809;DHT22;19159;48.178;16.386;2023-09-19T12:44:45;27.90;80.60
32809;DHT22;19159;48.178;16.386;2023-09-19T12:47:11;27.90;81.20
32809;DHT22;19159;48.178;16.386;2023-09-19T12:50:13;28.00;81.00
32809;DHT22;19159;48.178;16.386;2023-09-19T12:52:41;27.90;79.90
32809;DHT22;19159;48.178;16.386;2023-09-19T12:55:07;27.80;80.00
32809;DHT22;19159;48.178;16.386;2023-09-19T12:57:35;27.80;81.50
32809;DHT22;19159;48.178;16.386;2023-09-19T13:00:04;27.80;80.60
32809;DHT22;19159;48.178;16.386;2023-09-19T13:02:37;27.80;80.40
32809;DHT22;19159;48.178;16.386;2023-09-19T13:05:03;27.70;79.80
32809;DHT22;19159;48.178;16.386;2023-09-19T13:07:45;27.70;80.10
32809;DHT22;19159;48.178;16.386;2023-09-19T13:10:15;27.60;80.10
32809;DHT22;19159;48.178;16.386;2023-09-19T13:12:42;27.60;80.20
32809;DHT22;19159;48.178;16.386;2023-09-19T13:15:14;27.50;79.60
32809;DHT22;19159;48.178;16.386;2023-09-19T13:17:49;27.60;79.90
32809;DHT22;19159;48.178;16.386;2023-09-19T13:20:25;27.50;79.70
32809;DHT22;19159;48.178;16.386;2023-09-19T13:22:54;27.60;80.00
32809;DHT22;19159;48.178;16.386;2023-09-19T13:25:23;27.70;80.40
32809;DHT22;19159;48.178;16.386;2023-09-19T13:27:57;27.80;79.10
32809;DHT22;19159;48.178;16.386;2023-09-19T13:30:24;27.90;78.60
32809;DHT22;19159;48.178;16.386;2023-09-19T13:32:51;27.90;78.30
32809;DHT22;19159;48.178;16.386;2023-09-19T13:35:18;28.00;76.50
32809;DHT22;19159;48.178;16.386;2023-09-19T13:37:45;27.90;75.70
32809;DHT22;19159;48.178;16.386;2023-09-19T13:40:17;27.80;76.60
32809;DHT22;19159;48.178;16.386;2023-09-19T13:42:43;28.00;77.50
32809;DHT22;19159;48.178;16.386;2023-09-19T13:45:09;28.10;77.40
32809;DHT22;19159;48.178;16.386;2023-09-19T13:47:38;28.10;77.00
32809;DHT22;19159;48.178;16.386;2023-09-19T13:50:04;28.20;77.00
32809;DHT22;19159;48.178;16.386;2023-09-19T13:52:31;28.10;76.20
32809;DHT22;19159;48.178;16.386;2023-09-19T13:54:57;28.10;76.00
32809;DHT22;19159;48.178;16.386;2023-09-19T13:57:24;28.00;76.00
32809;DHT22;19159;48.178;16.386;2023-09-19T13:59:50;27.90;75.80
32809;DHT22;19159;48.178;16.386;2023-09-19T14:02:17;27.90;76.50
32809;DHT22;19159;48.178;16.386;2023-09-19T14:04:44;27.90;76.70
32809;DHT22;19159;48.178;16.386;2023-09-19T14:07:09;27.90;76.40
32809;DHT22;19159;48.178;16.386;2023-09-19T14:09:36;28.00;76.70
32809;DHT22;19159;48.178;16.386;2023-09-19T14:12:02;28.10;77.40
32809;DHT22;19159;48.178;16.386;2023-09-19T14:14:28;28.20;77.70
32809;DHT22;19159;48.178;16.386;2023-09-19T14:16:54;28.20;77.20
32809;DHT22;19159;48.178;16.386;2023-09-19T14:19:20;28.30;76.60
32809;DHT22;19159;48.178;16.386;2023-09-19T14:21:46;28.30;76.20
32809;DHT22;19159;48.178;16.386;2023-09-19T14:24:16;28.20;75.30
32809;DHT22;19159;48.178;16.386;2023-09-19T14:26:43;28.00;75.20
32809;DHT22;19159;48.178;16.386;2023-09-19T14:29:08;27.90;75.50
32809;DHT22;19159;48.178;16.386;2023-09-19T14:31:37;27.80;75.50
32809;DHT22;19159;48.178;16.386;2023-09-19T14:34:04;27.60;75.20
32809;DHT22;19159;48.178;16.386;2023-09-19T14:36:30;27.50;75.30
32809;DHT22;19159;48.178;16.386;2023-09-19T14:38:56;27.50;75.80
32809;DHT22;19159;48.178;16.386;2023-09-19T14:41:25;27.40;76.20
32809;DHT22;19159;48.178;16.386;2023-09-19T14:43:54;27.50;76.80
32809;DHT22;19159;48.178;16.386;2023-09-19T14:46:21;27.50;77.20
32809;DHT22;19159;48.178;16.386;2023-09-19T14:48:47;27.60;77.00
32809;DHT22;19159;48.178;16.386;2023-09-19T14:51:13;27.50;76.60
32809;DHT22;19159;48.178;16.386;2023-09-19T14:53:42;27.40;76.80
32809;DHT22;19159;48.178;16.386;2023-09-19T14:56:08;27.30;77.30
32809;DHT22;19159;48.178;16.386;2023-09-19T14:58:35;27.30;77.60
32809;DHT22;19159;48.178;16.386;2023-09-19T15:01:08;27.40;77.90
32809;DHT22;19159;48.178;16.386;2023-09-19T15:03:36;27.30;77.90
32809;DHT22;19159;48.178;16.386;2023-09-19T15:06:03;27.40;77.50
32809;DHT22;19159;48.178;16.386;2023-09-19T15:08:33;27.30;77.30
32809;DHT22;19159;48.178;16.386;2023-09-19T15:11:02;27.30;78.00
32809;DHT22;19159;48.178;16.386;2023-09-19T15:13:33;27.20;78.20
32809;DHT22;19159;48.178;16.386;2023-09-19T15:16:04;27.10;78.40
32809;DHT22;19159;48.178;16.386;2023-09-19T15:18:30;27.00;78.80
32809;DHT22;19159;48.178;16.386;2023-09-19T15:20:57;27.00;79.40
32809;DHT22;19159;48.178;16.386;2023-09-19T15:23:22;27.00;80.00
32809;DHT22;19159;48.178;16.386;2023-09-19T15:25:49;27.10;80.30
32809;DHT22;19159;48.178;16.386;2023-09-19T15:28:15;27.00;79.90
32809;DHT22;19159;48.178;16.386;2023-09-19T15:30:40;27.00;80.30
32809;DHT22;19159;48.178;16.386;2023-09-19T15:33:06;27.00;80.50
32809;DHT22;19159;48.178;16.386;2023-09-19T15:35:32;27.00;80.60
32809;DHT22;19159;48.178;16.386;2023-09-19T15:37:57;27.00;80.40
32809;DHT22;19159;48.178;16.386;2023-09-19T15:40:26;27.00;80.60
32809;DHT22;19159;48.178;16.386;2023-09-19T15:42:51;27.00;80.20
32809;DHT22;19159;48.178;16.386;2023-09-19T15:45:17;27.00;80.40
32809;DHT22;19159;48.178;16.386;2023-09-19T15:47:44;27.00;80.50
32809;DHT22;19159;48.178;16.386;2023-09-19T15:50:10;27.00;80.20
32809;DHT22;19159;48.178;16.386;2023-09-19T15:52:39;27.00;80.10
32809;DHT22;19159;48.178;16.386;2023-09-19T15:55:05;27.00;79.80
32809;DHT22;19159;48.178;16.386;2023-09-19T15:57:32;26.80;79.30
32809;DHT22;19159;48.178;16.386;2023-09-19T15:59:59;26.70;79.70
32809;DHT22;19159;48.178;16.386;2023-09-19T16:02:25;26.60;80.00
32809;DHT22;19159;48.178;16.386;2023-09-19T16:04:53;26.50;80.10
32809;DHT22;19159;48.178;16.386;2023-09-19T16:07:19;26.50;80.50